Terminal Aerodrome Forecast
Issued by NWS Wilmington, OH

Current Version | Previous Version | Graphics & Text | Print | Product List | Glossary On
Versions: 1 2 3 4 5 6 7 8 9 10 11 12 13 14 15 16 17 18 19 20 21
000
FTUS41 KILN 190200 AAA
TAFILN
TAF AMD
KILN 190232Z 1903/1924 VRB03KT 4SM BR SCT050
     FM190800 00000KT 1SM BR FEW001 BKN250
     FM191200 VRB03KT 2SM BR BKN250
     FM191400 23005KT P6SM BKN250
     FM191600 23008KT P6SM BKN050=

USA.gov is the U.S. government's official web portal to all federal, state and local government web resources and services.